地図

経路データ

SID SEASON NUMBER BASIN SUBBASIN NAME ISO_TIME NATURE LAT LON WMO_WIND WMO_PRES WMO_AGENCY TRACK_TYPE DIST2LAND LANDFALL IFLAG USA_AGENCY USA_ATCF_ID USA_LAT USA_LON USA_RECORD USA_STATUS USA_WIND USA_PRES USA_SSHS USA_R34_NE USA_R34_SE USA_R34_SW USA_R34_NW USA_R50_NE USA_R50_SE USA_R50_SW USA_R50_NW USA_R64_NE USA_R64_SE USA_R64_SW USA_R64_NW USA_POCI USA_ROCI USA_RMW USA_EYE TOKYO_LAT TOKYO_LON TOKYO_GRADE TOKYO_WIND TOKYO_PRES TOKYO_R50_DIR TOKYO_R50_LONG TOKYO_R50_SHORT TOKYO_R30_DIR TOKYO_R30_LONG TOKYO_R30_SHORT TOKYO_LAND CMA_LAT CMA_LON CMA_CAT CMA_WIND CMA_PRES HKO_LAT HKO_LON HKO_CAT HKO_WIND HKO_PRES NEWDELHI_LAT NEWDELHI_LON NEWDELHI_GRADE NEWDELHI_WIND NEWDELHI_PRES NEWDELHI_CI NEWDELHI_DP NEWDELHI_POCI REUNION_LAT REUNION_LON REUNION_TYPE REUNION_WIND REUNION_PRES REUNION_TNUM REUNION_CI REUNION_RMW REUNION_R34_NE REUNION_R34_SE REUNION_R34_SW REUNION_R34_NW REUNION_R50_NE REUNION_R50_SE REUNION_R50_SW REUNION_R50_NW REUNION_R64_NE REUNION_R64_SE REUNION_R64_SW REUNION_R64_NW BOM_LAT BOM_LON BOM_TYPE BOM_WIND BOM_PRES BOM_TNUM BOM_CI BOM_RMW BOM_R34_NE BOM_R34_SE BOM_R34_SW BOM_R34_NW BOM_R50_NE BOM_R50_SE BOM_R50_SW BOM_R50_NW BOM_R64_NE BOM_R64_SE BOM_R64_SW BOM_R64_NW BOM_ROCI BOM_POCI BOM_EYE BOM_POS_METHOD BOM_PRES_METHOD NADI_LAT NADI_LON NADI_CAT NADI_WIND NADI_PRES WELLINGTON_LAT WELLINGTON_LON WELLINGTON_WIND WELLINGTON_PRES DS824_LAT DS824_LON DS824_STAGE DS824_WIND DS824_PRES TD9636_LAT TD9636_LON TD9636_STAGE TD9636_WIND TD9636_PRES TD9635_LAT TD9635_LON TD9635_WIND TD9635_PRES TD9635_ROCI NEUMANN_LAT NEUMANN_LON NEUMANN_CLASS NEUMANN_WIND NEUMANN_PRES MLC_LAT MLC_LON MLC_CLASS MLC_WIND MLC_PRES USA_GUST BOM_GUST BOM_GUST_PER REUNION_GUST REUNION_GUST_PER USA_SEAHGT USA_SEARAD_NE USA_SEARAD_SE USA_SEARAD_SW USA_SEARAD_NW STORM_SPEED STORM_DIR
1891130N06113 1891 10 WP MM NOT_NAMED 1891-05-09 16:00:00 NR 6.00000 112.900 main 198 198 __________O___ -1 6.00000 112.900 7 44 3
1891130N06113 1891 10 WP MM NOT_NAMED 1891-05-09 18:00:00 NR 7.46096 112.977 main 343 353 __________P___ -1 7.46096 112.977 7 43 3
1891130N06113 1891 10 WP MM NOT_NAMED 1891-05-09 21:00:00 NR 9.57041 113.077 main 473 410 __________P___ -1 9.57041 113.077 7 40 2
1891130N06113 1891 10 WP MM NOT_NAMED 1891-05-10 00:00:00 NR 11.4587 113.135 main 410 390 __________P___ -1 11.4587 113.135 7 34 1
1891130N06113 1891 10 WP MM NOT_NAMED 1891-05-10 03:00:00 NR 12.9910 113.124 main 390 390 __________P___ -1 12.9910 113.124 7 29 359
1891130N06113 1891 10 WP MM NOT_NAMED 1891-05-10 04:00:00 NR 13.4000 113.100 main 394 394 __________O___ -1 13.4000 113.100 3 21 355
1891130N06113 1891 10 WP MM NOT_NAMED 1891-05-10 06:00:00 NR 14.0512 113.021 main 400 392 __________P___ -1 14.0512 113.021 3 16 350
1891130N06113 1891 10 WP MM NOT_NAMED 1891-05-10 09:00:00 NR 14.6947 112.857 main 398 386 __________P___ -1 14.6947 112.857 3 11 343
1891130N06113 1891 10 WP MM NOT_NAMED 1891-05-10 12:00:00 NR 15.0859 112.696 main 389 380 __________P___ -1 15.0859 112.696 3 7 341
1891130N06113 1891 10 WP MM NOT_NAMED 1891-05-10 15:00:00 NR 15.3897 112.604 main 384 384 __________P___ -1 15.3897 112.604 3 6 347
1891130N06113 1891 10 WP MM NOT_NAMED 1891-05-10 16:00:00 NR 15.5000 112.600 main 386 386 __________O___ -1 15.5000 112.600 4 10 7
1891130N06113 1891 10 WP MM NOT_NAMED 1891-05-10 18:00:00 NR 15.8579 112.664 main 397 361 __________P___ -1 15.8579 112.664 4 11 15
1891130N06113 1891 10 WP MM NOT_NAMED 1891-05-10 21:00:00 NR 16.3949 112.849 main 361 346 __________P___ -1 16.3949 112.849 4 12 22
1891130N06113 1891 10 WP MM NOT_NAMED 1891-05-11 00:00:00 NR 16.9238 113.107 main 347 337 __________P___ -1 16.9238 113.107 4 12 27
1891130N06113 1891 10 WP MM NOT_NAMED 1891-05-11 03:00:00 NR 17.4351 113.401 main 344 339 __________P___ -1 17.4351 113.401 4 12 29
1891130N06113 1891 10 WP MM NOT_NAMED 1891-05-11 04:00:00 NR 17.6000 113.500 main 343 333 __________O___ -1 17.6000 113.500 4 11 26
1891130N06113 1891 10 WP MM NOT_NAMED 1891-05-11 06:00:00 NR 17.9379 113.662 main 342 328 __________P___ -1 17.9379 113.662 4 11 26
1891130N06113 1891 10 WP MM NOT_NAMED 1891-05-11 09:00:00 NR 18.4265 113.916 main 333 328 __________P___ -1 18.4265 113.916 4 11 28
1891130N06113 1891 10 WP MM NOT_NAMED 1891-05-11 12:00:00 NR 18.8791 114.191 main 344 330 __________P___ -1 18.8791 114.191 4 10 33
1891130N06113 1891 10 WP MM NOT_NAMED 1891-05-11 15:00:00 NR 19.2804 114.493 main 330 325 __________P___ -1 19.2804 114.493 4 10 36
1891130N06113 1891 10 WP MM NOT_NAMED 1891-05-11 16:00:00 NR 19.4000 114.600 main 325 306 __________O___ -1 19.4000 114.600 4 9 43
1891130N06113 1891 10 WP MM NOT_NAMED 1891-05-11 18:00:00 NR 19.6162 114.826 main 306 280 __________P___ -1 19.6162 114.826 4 9 48
1891130N06113 1891 10 WP MM NOT_NAMED 1891-05-11 21:00:00 NR 19.8919 115.189 main 284 271 __________P___ -1 19.8919 115.189 4 9 54
1891130N06113 1891 10 WP MM NOT_NAMED 1891-05-12 00:00:00 NR 20.1248 115.572 main 277 263 __________P___ -1 20.1248 115.572 4 9 59
1891130N06113 1891 10 WP MM NOT_NAMED 1891-05-12 03:00:00 NR 20.3330 115.967 main 269 258 __________P___ -1 20.3330 115.967 4 9 61
1891130N06113 1891 10 WP MM NOT_NAMED 1891-05-12 04:00:00 NR 20.4000 116.100 main 259 __________O___ -1 20.4000 116.100 4 9 62

デジタル台風データ・検索

IBTrACS Databaseについて

本データベースは、米国NOAAが公開する1842年以降の世界の熱帯低気圧のベストトラックデータアーカイブInternational Best Track Archive for Climate Stewardship (IBTrACS)を、ウェブで閲覧しやすい形式に変換したものです。

最終更新日:2021-10-08